createdAt,value
2023-02-09T00:00:34.452Z,-4.54
2023-02-09T00:01:34.461Z,-4.55
2023-02-09T00:02:34.431Z,-4.59
2023-02-09T00:03:34.492Z,-4.40
2023-02-09T00:04:34.402Z,-4.55
2023-02-09T00:05:34.580Z,-4.58
2023-02-09T00:06:34.366Z,-4.59
2023-02-09T00:07:34.358Z,-4.46
2023-02-09T00:08:34.344Z,-4.51
2023-02-09T00:09:34.341Z,-4.54
2023-02-09T00:10:34.326Z,-4.62
2023-02-09T00:11:34.310Z,-4.66
2023-02-09T00:12:34.291Z,-4.55
2023-02-09T00:13:34.283Z,-4.51
2023-02-09T00:14:34.265Z,-4.67
2023-02-09T00:15:34.251Z,-4.62
2023-02-09T00:16:34.312Z,-4.73
2023-02-09T00:17:34.245Z,-4.63
2023-02-09T00:18:34.313Z,-4.76
2023-02-09T00:19:34.200Z,-4.81
2023-02-09T00:20:34.177Z,-4.73
2023-02-09T00:21:34.183Z,-4.65
2023-02-09T00:22:34.163Z,-4.70
2023-02-09T00:23:34.148Z,-4.63
2023-02-09T00:24:34.134Z,-4.72
2023-02-09T00:25:34.125Z,-4.73
2023-02-09T00:26:34.121Z,-5.02
2023-02-09T00:27:34.092Z,-4.85
2023-02-09T00:28:34.080Z,-4.95
2023-02-09T00:29:34.069Z,-4.83
2023-02-09T00:30:34.217Z,-4.97
2023-02-09T00:31:34.140Z,-4.79
2023-02-09T00:32:34.024Z,-4.74
2023-02-09T00:33:34.039Z,-4.99
2023-02-09T00:34:34.009Z,-4.83
2023-02-09T00:35:33.990Z,-4.90
2023-02-09T00:36:34.007Z,-4.79
2023-02-09T00:37:33.961Z,-4.91
2023-02-09T00:38:33.948Z,-4.79
2023-02-09T00:39:33.932Z,-4.88
2023-02-09T00:40:33.917Z,-4.87
2023-02-09T00:41:33.903Z,-5.02
2023-02-09T00:42:33.891Z,-4.90
2023-02-09T00:43:33.879Z,-4.91
2023-02-09T00:44:33.871Z,-4.85
2023-02-09T00:45:33.892Z,-4.83
2023-02-09T00:46:33.999Z,-4.93
2023-02-09T00:47:33.832Z,-4.87
2023-02-09T00:48:33.821Z,-4.83
2023-02-09T00:49:33.840Z,-4.81
2023-02-09T00:50:33.790Z,-4.93
2023-02-09T00:51:33.777Z,-4.83
2023-02-09T00:52:33.758Z,-5.01
2023-02-09T00:53:33.801Z,-4.87
2023-02-09T00:54:33.737Z,-5.02
2023-02-09T00:55:33.924Z,-5.05
2023-02-09T00:56:33.705Z,-5.01
2023-02-09T00:57:33.698Z,-4.88
2023-02-09T00:58:33.683Z,-4.94
2023-02-09T00:59:33.671Z,-5.11
2023-02-09T01:00:33.653Z,-4.81
2023-02-09T01:01:33.721Z,-5.09
2023-02-09T01:02:33.624Z,-5.06
2023-02-09T01:03:33.613Z,-5.13
2023-02-09T01:04:33.656Z,-4.99
2023-02-09T01:05:33.715Z,-5.02
2023-02-09T01:06:33.577Z,-5.23
2023-02-09T01:07:33.558Z,-5.09
2023-02-09T01:08:33.553Z,-4.90
2023-02-09T01:09:33.544Z,-4.91
2023-02-09T01:10:33.530Z,-5.05
2023-02-09T01:11:33.516Z,-4.90
2023-02-09T01:12:33.507Z,-5.03
2023-02-09T01:13:33.487Z,-5.12
2023-02-09T01:14:33.469Z,-5.12
2023-02-09T01:15:33.461Z,-5.12
2023-02-09T01:16:33.471Z,-4.97
2023-02-09T01:17:33.429Z,-5.30
2023-02-09T01:18:33.419Z,-5.09
2023-02-09T01:19:33.401Z,-5.02
2023-02-09T01:20:33.390Z,-5.27
2023-02-09T01:21:33.401Z,-5.17
2023-02-09T01:22:33.359Z,-5.25
2023-02-09T01:23:33.346Z,-5.20
2023-02-09T01:24:33.344Z,-5.23
2023-02-09T01:25:33.325Z,-5.13
2023-02-09T01:26:33.313Z,-5.30
2023-02-09T01:27:33.294Z,-5.28
2023-02-09T01:28:33.483Z,-5.28
2023-02-09T01:29:33.274Z,-5.35
2023-02-09T01:30:33.336Z,-5.28
2023-02-09T01:31:33.392Z,-5.28
2023-02-09T01:32:33.229Z,-5.34
2023-02-09T01:33:33.415Z,-5.46
2023-02-09T01:34:33.207Z,-5.21
2023-02-09T01:35:33.188Z,-5.21
2023-02-09T01:36:33.176Z,-5.43
2023-02-09T01:37:33.194Z,-5.38
2023-02-09T01:38:33.153Z,-5.42
2023-02-09T01:39:33.144Z,-5.33
2023-02-09T01:40:33.121Z,-5.35
2023-02-09T01:41:33.122Z,-5.43
2023-02-09T01:42:33.107Z,-5.38
2023-02-09T01:43:33.084Z,-5.35
2023-02-09T01:44:33.077Z,-5.45
2023-02-09T01:45:33.062Z,-5.33
2023-02-09T01:46:33.093Z,-5.49
2023-02-09T01:47:33.042Z,-5.46
2023-02-09T01:48:33.038Z,-5.41
2023-02-09T01:49:33.013Z,-5.59
2023-02-09T01:50:33.002Z,-5.38
2023-02-09T01:51:32.992Z,-5.38
2023-02-09T01:52:32.973Z,-5.41
2023-02-09T01:53:32.988Z,-5.70
2023-02-09T01:54:32.951Z,-5.64
2023-02-09T01:55:32.933Z,-5.51
2023-02-09T01:56:33.266Z,-5.52
2023-02-09T01:57:32.938Z,-5.51
2023-02-09T01:58:32.892Z,-5.70
2023-02-09T01:59:32.885Z,-5.60
2023-02-09T02:00:32.870Z,-5.73
2023-02-09T02:01:32.975Z,-5.59
2023-02-09T02:02:32.882Z,-5.70
2023-02-09T02:03:32.833Z,-5.48
2023-02-09T02:04:32.809Z,-5.73
2023-02-09T02:05:32.799Z,-5.67
2023-02-09T02:06:32.783Z,-5.52
2023-02-09T02:07:32.773Z,-5.62
2023-02-09T02:08:32.766Z,-5.52
2023-02-09T02:09:32.772Z,-5.64
2023-02-09T02:10:32.738Z,-5.55
2023-02-09T02:11:32.722Z,-5.51
2023-02-09T02:12:32.724Z,-5.62
2023-02-09T02:13:32.697Z,-5.57
2023-02-09T02:14:32.683Z,-5.52
2023-02-09T02:15:32.732Z,-5.62
2023-02-09T02:16:32.652Z,-5.55
2023-02-09T02:17:32.651Z,-5.52
2023-02-09T02:18:32.652Z,-5.55
2023-02-09T02:19:32.657Z,-5.48
2023-02-09T02:20:32.609Z,-5.67
2023-02-09T02:21:32.584Z,-5.71
2023-02-09T02:22:32.584Z,-5.64
2023-02-09T02:23:32.556Z,-5.67
2023-02-09T02:24:32.549Z,-5.80
2023-02-09T02:25:32.557Z,-5.78
2023-02-09T02:26:32.518Z,-5.70
2023-02-09T02:27:32.508Z,-5.81
2023-02-09T02:28:32.536Z,-5.91
2023-02-09T02:29:32.476Z,-5.67
2023-02-09T02:30:32.487Z,-5.73
2023-02-09T02:31:32.485Z,-5.81
2023-02-09T02:32:32.442Z,-5.88
2023-02-09T02:33:32.423Z,-5.81
2023-02-09T02:34:32.416Z,-5.85
2023-02-09T02:35:32.409Z,-5.90
2023-02-09T02:36:32.388Z,-5.78
2023-02-09T02:37:32.371Z,-5.90
2023-02-09T02:38:32.364Z,-5.95
2023-02-09T02:39:32.447Z,-5.82
2023-02-09T02:40:32.340Z,-5.75
2023-02-09T02:41:32.341Z,-5.80
2023-02-09T02:42:32.306Z,-5.85
2023-02-09T02:43:32.291Z,-5.82
2023-02-09T02:44:32.286Z,-5.81
2023-02-09T02:45:32.268Z,-5.75
2023-02-09T02:46:32.525Z,-5.77
2023-02-09T02:47:32.241Z,-5.78
2023-02-09T02:48:32.237Z,-5.73
2023-02-09T02:49:32.222Z,-5.91
2023-02-09T02:50:32.251Z,-5.88
2023-02-09T02:51:32.400Z,-5.84
2023-02-09T02:52:32.189Z,-5.91
2023-02-09T02:53:32.172Z,-5.85
2023-02-09T02:54:32.162Z,-5.98
2023-02-09T02:55:32.154Z,-5.85
2023-02-09T02:56:32.143Z,-5.87
2023-02-09T02:57:32.137Z,-5.87
2023-02-09T02:58:32.107Z,-5.85
2023-02-09T02:59:32.093Z,-5.95
2023-02-09T03:00:32.082Z,-5.91
2023-02-09T03:01:32.151Z,-6.00
2023-02-09T03:02:32.061Z,-5.80
2023-02-09T03:03:32.061Z,-5.96
2023-02-09T03:04:32.034Z,-6.02
2023-02-09T03:05:32.170Z,-6.08
2023-02-09T03:06:32.005Z,-6.10
2023-02-09T03:07:32.189Z,-6.10
2023-02-09T03:08:31.976Z,-6.13
2023-02-09T03:09:31.964Z,-6.09
2023-02-09T03:10:31.959Z,-5.95
2023-02-09T03:11:31.937Z,-6.06
2023-02-09T03:12:31.923Z,-6.00
2023-02-09T03:13:31.952Z,-6.16
2023-02-09T03:14:31.903Z,-6.09
2023-02-09T03:15:31.883Z,-6.08
2023-02-09T03:16:31.872Z,-6.10
2023-02-09T03:17:31.859Z,-6.23
2023-02-09T03:18:31.849Z,-6.09
2023-02-09T03:19:31.836Z,-6.20
2023-02-09T03:20:31.819Z,-6.08
2023-02-09T03:21:31.811Z,-6.16
2023-02-09T03:22:31.804Z,-6.27
2023-02-09T03:23:31.785Z,-6.24
2023-02-09T03:24:31.803Z,-6.14
2023-02-09T03:25:31.763Z,-6.31
2023-02-09T03:26:31.838Z,-6.16
2023-02-09T03:27:31.727Z,-6.29
2023-02-09T03:28:31.970Z,-6.34
2023-02-09T03:29:31.730Z,-6.21
2023-02-09T03:30:31.718Z,-6.44
2023-02-09T03:31:31.720Z,-6.26
2023-02-09T03:32:31.670Z,-6.26
2023-02-09T03:33:31.647Z,-6.20
2023-02-09T03:34:31.629Z,-6.31
2023-02-09T03:35:31.632Z,-6.32
2023-02-09T03:36:31.609Z,-6.35
2023-02-09T03:37:31.600Z,-6.31
2023-02-09T03:38:31.588Z,-6.34
2023-02-09T03:39:31.576Z,-6.37
2023-02-09T03:40:31.562Z,-6.38
2023-02-09T03:41:31.543Z,-6.38
2023-02-09T03:42:31.525Z,-6.42
2023-02-09T03:43:31.520Z,-6.42
2023-02-09T03:44:31.514Z,-6.45
2023-02-09T03:45:31.526Z,-6.34
2023-02-09T03:46:31.579Z,-6.31
2023-02-09T03:47:31.474Z,-6.41
2023-02-09T03:48:31.450Z,-6.53
2023-02-09T03:49:31.444Z,-6.45
2023-02-09T03:50:31.429Z,-6.56
2023-02-09T03:51:31.413Z,-6.52
2023-02-09T03:52:31.400Z,-6.47
2023-02-09T03:53:31.593Z,-6.44
2023-02-09T03:54:31.389Z,-6.52
2023-02-09T03:55:31.365Z,-6.53
2023-02-09T03:56:31.362Z,-6.44
2023-02-09T03:57:31.334Z,-6.52
2023-02-09T03:58:31.525Z,-6.37
2023-02-09T03:59:31.314Z,-6.61
2023-02-09T04:00:31.337Z,-6.60
2023-02-09T04:01:31.309Z,-6.52
2023-02-09T04:02:31.351Z,-6.64
2023-02-09T04:03:31.260Z,-6.66
2023-02-09T04:04:31.250Z,-6.67
2023-02-09T04:05:31.232Z,-6.47
2023-02-09T04:06:31.221Z,-6.63
2023-02-09T04:07:31.207Z,-6.50
2023-02-09T04:08:31.182Z,-6.71
2023-02-09T04:09:31.181Z,-6.61
2023-02-09T04:10:31.166Z,-6.60
2023-02-09T04:11:31.153Z,-6.61
2023-02-09T04:12:31.131Z,-6.61
2023-02-09T04:13:31.121Z,-6.64
2023-02-09T04:14:31.110Z,-6.67
2023-02-09T04:15:31.098Z,-6.74
2023-02-09T04:16:31.166Z,-6.67
2023-02-09T04:17:31.101Z,-6.64
2023-02-09T04:18:31.060Z,-6.77
2023-02-09T04:19:31.061Z,-6.79
2023-02-09T04:20:31.038Z,-6.79
2023-02-09T04:21:31.018Z,-6.85
2023-02-09T04:22:31.045Z,-6.78
2023-02-09T04:23:30.987Z,-6.82
2023-02-09T04:24:30.980Z,-6.79
2023-02-09T04:25:30.972Z,-6.79
2023-02-09T04:26:30.957Z,-6.87
2023-02-09T04:27:30.945Z,-6.84
2023-02-09T04:28:30.990Z,-6.79
2023-02-09T04:29:30.927Z,-6.82
2023-02-09T04:30:30.960Z,-6.82
2023-02-09T04:31:31.023Z,-6.92
2023-02-09T04:32:30.869Z,-6.90
2023-02-09T04:33:30.884Z,-7.00
2023-02-09T04:34:30.849Z,-6.96
2023-02-09T04:35:30.841Z,-6.89
2023-02-09T04:36:30.820Z,-7.03
2023-02-09T04:37:30.812Z,-6.95
2023-02-09T04:38:30.793Z,-6.92
2023-02-09T04:39:30.788Z,-6.90
2023-02-09T04:40:30.776Z,-6.84
2023-02-09T04:41:30.750Z,-6.85
2023-02-09T04:42:30.737Z,-6.85
2023-02-09T04:43:30.725Z,-6.87
2023-02-09T04:44:30.714Z,-6.92
2023-02-09T04:45:30.785Z,-6.87
2023-02-09T04:46:30.695Z,-6.89
2023-02-09T04:47:30.677Z,-6.95
2023-02-09T04:48:30.667Z,-6.92
2023-02-09T04:49:30.669Z,-6.99
2023-02-09T04:50:30.633Z,-6.96
2023-02-09T04:51:30.623Z,-6.96
2023-02-09T04:52:30.609Z,-7.02
2023-02-09T04:53:30.592Z,-6.98
2023-02-09T04:54:30.578Z,-6.90
2023-02-09T04:55:30.571Z,-6.92
2023-02-09T04:56:30.557Z,-6.93
2023-02-09T04:57:30.548Z,-6.95
2023-02-09T04:58:30.532Z,-7.00
2023-02-09T04:59:30.544Z,-7.05
2023-02-09T05:00:30.518Z,-7.08
2023-02-09T05:01:30.653Z,-7.03
2023-02-09T05:02:30.475Z,-7.10
2023-02-09T05:03:30.698Z,-7.00
2023-02-09T05:04:30.504Z,-7.13
2023-02-09T05:05:30.455Z,-7.07
2023-02-09T05:06:30.416Z,-7.10
2023-02-09T05:07:30.407Z,-7.14
2023-02-09T05:08:30.641Z,-7.02
2023-02-09T05:09:30.387Z,-7.13
2023-02-09T05:10:30.420Z,-7.00
2023-02-09T05:11:30.365Z,-7.08
2023-02-09T05:12:30.346Z,-7.08
2023-02-09T05:13:30.327Z,-7.10
2023-02-09T05:14:30.311Z,-6.95
2023-02-09T05:15:30.300Z,-6.99
2023-02-09T05:16:30.322Z,-6.99
2023-02-09T05:17:30.274Z,-7.02
2023-02-09T05:18:30.261Z,-7.00
2023-02-09T05:19:30.247Z,-7.11
2023-02-09T05:20:30.235Z,-7.16
2023-02-09T05:21:30.246Z,-7.13
2023-02-09T05:22:30.213Z,-7.05
2023-02-09T05:23:30.199Z,-7.13
2023-02-09T05:24:30.183Z,-7.05
2023-02-09T05:25:30.327Z,-7.08
2023-02-09T05:26:30.160Z,-7.07
2023-02-09T05:27:30.147Z,-7.17
2023-02-09T05:28:30.250Z,-7.08
2023-02-09T05:29:30.113Z,-7.05
2023-02-09T05:30:30.102Z,-6.99
2023-02-09T05:31:30.146Z,-6.99
2023-02-09T05:32:30.073Z,-7.07
2023-02-09T05:33:30.062Z,-7.00
2023-02-09T05:34:30.048Z,-6.99
2023-02-09T05:35:30.052Z,-6.98
2023-02-09T05:36:30.029Z,-6.96
2023-02-09T05:37:30.047Z,-6.96
2023-02-09T05:38:30.004Z,-7.02
2023-02-09T05:39:29.986Z,-6.96
2023-02-09T05:40:29.986Z,-7.10
2023-02-09T05:41:29.956Z,-7.10
2023-02-09T05:42:29.946Z,-7.14
2023-02-09T05:43:29.936Z,-7.03
2023-02-09T05:44:29.914Z,-7.13
2023-02-09T05:45:29.921Z,-7.08
2023-02-09T05:46:29.937Z,-7.14
2023-02-09T05:47:29.979Z,-7.18
2023-02-09T05:48:29.861Z,-7.11
2023-02-09T05:49:29.875Z,-7.16
2023-02-09T05:50:29.839Z,-7.08
2023-02-09T05:51:29.926Z,-7.13
2023-02-09T05:52:30.022Z,-7.10
2023-02-09T05:53:29.819Z,-7.16
2023-02-09T05:54:29.786Z,-7.10
2023-02-09T05:55:29.772Z,-7.10
2023-02-09T05:56:29.752Z,-7.18
2023-02-09T05:57:29.742Z,-7.18
2023-02-09T05:58:29.736Z,-7.14
2023-02-09T05:59:29.718Z,-7.21
2023-02-09T06:00:29.704Z,-7.11
2023-02-09T06:01:29.695Z,-7.21
2023-02-09T06:02:29.697Z,-7.21
2023-02-09T06:03:29.775Z,-7.20
2023-02-09T06:04:29.666Z,-7.11
2023-02-09T06:05:29.638Z,-7.14
2023-02-09T06:06:29.623Z,-7.16
2023-02-09T06:07:29.626Z,-7.20
2023-02-09T06:08:29.599Z,-7.21
2023-02-09T06:09:29.603Z,-7.28
2023-02-09T06:10:29.564Z,-7.20
2023-02-09T06:11:29.552Z,-7.21
2023-02-09T06:12:29.543Z,-7.29
2023-02-09T06:13:29.583Z,-7.39
2023-02-09T06:14:29.525Z,-7.34
2023-02-09T06:15:29.608Z,-7.45
2023-02-09T06:16:29.490Z,-7.37
2023-02-09T06:17:29.482Z,-7.35
2023-02-09T06:18:29.467Z,-7.41
2023-02-09T06:19:29.451Z,-7.42
2023-02-09T06:20:29.443Z,-7.37
2023-02-09T06:21:29.429Z,-7.35
2023-02-09T06:22:29.415Z,-7.45
2023-02-09T06:23:29.405Z,-7.38
2023-02-09T06:24:29.385Z,-7.23
2023-02-09T06:25:29.424Z,-7.38
2023-02-09T06:26:29.365Z,-7.39
2023-02-09T06:27:29.359Z,-7.37
2023-02-09T06:28:29.379Z,-7.37
2023-02-09T06:29:29.332Z,-7.35
2023-02-09T06:30:29.646Z,-7.49
2023-02-09T06:31:29.488Z,-7.38
2023-02-09T06:32:29.292Z,-7.42
2023-02-09T06:33:29.280Z,-7.37
2023-02-09T06:34:29.268Z,-7.31
2023-02-09T06:35:29.253Z,-7.37
2023-02-09T06:36:29.241Z,-7.42
2023-02-09T06:37:29.227Z,-7.49
2023-02-09T06:38:29.213Z,-7.47
2023-02-09T06:39:29.198Z,-7.41
2023-02-09T06:40:29.191Z,-7.39
2023-02-09T06:41:29.220Z,-7.53
2023-02-09T06:42:29.163Z,-7.34
2023-02-09T06:43:29.154Z,-7.50
2023-02-09T06:44:29.145Z,-7.53
2023-02-09T06:45:29.126Z,-7.45
2023-02-09T06:46:29.150Z,-7.57
2023-02-09T06:47:29.105Z,-7.55
2023-02-09T06:48:29.094Z,-7.47
2023-02-09T06:49:29.080Z,-7.49
2023-02-09T06:50:29.062Z,-7.49
2023-02-09T06:51:29.048Z,-7.50
2023-02-09T06:52:29.042Z,-7.41
2023-02-09T06:53:29.030Z,-7.39
2023-02-09T06:54:29.012Z,-7.47
2023-02-09T06:55:29.003Z,-7.50
2023-02-09T06:56:29.013Z,-7.46
2023-02-09T06:57:28.999Z,-7.31
2023-02-09T06:58:28.971Z,-7.27
2023-02-09T06:59:28.954Z,-7.23
2023-02-09T07:00:28.945Z,-7.23
2023-02-09T07:01:28.981Z,-7.18
2023-02-09T07:02:28.933Z,-7.14
2023-02-09T07:03:28.904Z,-7.14
2023-02-09T07:04:28.889Z,-7.08
2023-02-09T07:05:28.910Z,-7.03
2023-02-09T07:06:28.862Z,-7.14
2023-02-09T07:07:28.845Z,-7.03
2023-02-09T07:08:28.834Z,-7.08
2023-02-09T07:09:28.818Z,-6.92
2023-02-09T07:10:28.816Z,-6.87
2023-02-09T07:11:28.789Z,-6.82
2023-02-09T07:12:28.792Z,-6.89
2023-02-09T07:13:28.791Z,-6.74
2023-02-09T07:14:28.757Z,-6.81
2023-02-09T07:15:28.741Z,-6.61
2023-02-09T07:16:28.767Z,-6.67
2023-02-09T07:17:28.714Z,-6.74
2023-02-09T07:18:28.704Z,-6.67
2023-02-09T07:19:28.687Z,-6.67
2023-02-09T07:20:28.684Z,-6.61
2023-02-09T07:21:28.670Z,-6.60
2023-02-09T07:22:28.655Z,-6.59
2023-02-09T07:23:28.638Z,-6.45
2023-02-09T07:24:28.629Z,-6.50
2023-02-09T07:25:28.616Z,-6.52
2023-02-09T07:26:28.609Z,-6.39
2023-02-09T07:27:28.585Z,-6.41
2023-02-09T07:28:28.676Z,-6.35
2023-02-09T07:29:28.572Z,-6.21
2023-02-09T07:30:28.663Z,-6.29
2023-02-09T07:31:28.702Z,-6.17
2023-02-09T07:32:28.511Z,-6.17
2023-02-09T07:33:28.506Z,-6.09
2023-02-09T07:34:28.490Z,-6.23
2023-02-09T07:35:28.481Z,-6.13
2023-02-09T07:36:28.472Z,-6.17
2023-02-09T07:37:28.450Z,-6.24
2023-02-09T07:38:28.438Z,-6.20
2023-02-09T07:39:28.423Z,-6.08
2023-02-09T07:40:28.519Z,-6.10
2023-02-09T07:41:28.400Z,-5.99
2023-02-09T07:42:28.388Z,-6.14
2023-02-09T07:43:28.406Z,-6.03
2023-02-09T07:44:28.358Z,-5.98
2023-02-09T07:45:28.361Z,-6.08
2023-02-09T07:46:28.419Z,-5.90
2023-02-09T07:47:28.326Z,-5.96
2023-02-09T07:48:28.448Z,-5.98
2023-02-09T07:49:28.307Z,-5.92
2023-02-09T07:50:28.276Z,-5.88
2023-02-09T07:51:28.266Z,-5.85
2023-02-09T07:52:28.247Z,-5.77
2023-02-09T07:53:28.230Z,-5.70
2023-02-09T07:54:28.223Z,-5.81
2023-02-09T07:55:28.200Z,-5.67
2023-02-09T07:56:28.234Z,-5.69
2023-02-09T07:57:28.177Z,-5.55
2023-02-09T07:58:28.178Z,-5.51
2023-02-09T07:59:28.156Z,-5.63
2023-02-09T08:00:28.138Z,-5.49
2023-02-09T08:01:28.283Z,-5.42
2023-02-09T08:02:28.126Z,-5.38
2023-02-09T08:03:28.105Z,-5.62
2023-02-09T08:04:28.099Z,-5.31
2023-02-09T08:05:28.148Z,-5.41
2023-02-09T08:06:41.068Z,-5.11
2023-02-09T08:07:29.081Z,-5.21
2023-02-09T08:08:28.039Z,-5.12
2023-02-09T08:09:28.023Z,-5.06
2023-02-09T08:10:28.016Z,-5.03
2023-02-09T08:11:27.998Z,-4.88
2023-02-09T08:12:28.069Z,-5.09
2023-02-09T08:13:27.964Z,-4.97
2023-02-09T08:14:27.974Z,-4.87
2023-02-09T08:15:27.942Z,-4.99
2023-02-09T08:16:28.002Z,-5.05
2023-02-09T08:17:28.057Z,-5.21
2023-02-09T08:18:27.909Z,-5.03
2023-02-09T08:19:27.897Z,-5.03
2023-02-09T08:20:27.889Z,-4.81
2023-02-09T08:21:27.866Z,-4.87
2023-02-09T08:22:27.858Z,-4.79
2023-02-09T08:23:27.842Z,-4.83
2023-02-09T08:24:27.828Z,-4.69
2023-02-09T08:25:27.814Z,-4.63
2023-02-09T08:26:27.804Z,-4.54
2023-02-09T08:27:27.795Z,-4.44
2023-02-09T08:28:42.877Z,-4.27
2023-02-09T08:29:28.797Z,-4.27
2023-02-09T08:30:27.755Z,-4.22
2023-02-09T08:31:27.876Z,-4.22
2023-02-09T08:32:27.730Z,-4.23
2023-02-09T08:33:27.727Z,-4.17
2023-02-09T08:34:27.696Z,-3.91
2023-02-09T08:35:29.629Z,-3.91
2023-02-09T08:36:27.687Z,-3.95
2023-02-09T08:37:27.665Z,-3.80
2023-02-09T08:38:27.650Z,-3.61
2023-02-09T08:39:27.640Z,-3.57
2023-02-09T08:40:27.622Z,-3.40
2023-02-09T08:41:27.608Z,-3.36
2023-02-09T08:42:27.589Z,-3.21
2023-02-09T08:43:27.576Z,-3.18
2023-02-09T08:44:27.569Z,-2.98
2023-02-09T08:45:27.717Z,-2.86
2023-02-09T08:46:27.746Z,-2.51
2023-02-09T08:47:27.530Z,-2.21
2023-02-09T08:48:27.520Z,-2.00
2023-02-09T08:49:27.561Z,-1.90
2023-02-09T08:50:27.509Z,-1.83
2023-02-09T08:51:27.486Z,-1.95
2023-02-09T08:52:27.465Z,-2.00
2023-02-09T08:53:27.451Z,-2.00
2023-02-09T08:54:27.445Z,-1.95
2023-02-09T08:55:27.427Z,-1.85
2023-02-09T08:56:27.413Z,-2.06
2023-02-09T08:57:41.718Z,-1.92
2023-02-09T08:58:28.416Z,-1.98
2023-02-09T08:59:27.379Z,-1.92
2023-02-09T09:00:27.374Z,-1.86
2023-02-09T09:01:27.414Z,-1.78
2023-02-09T09:02:27.331Z,-1.82
2023-02-09T09:03:27.377Z,-1.67
2023-02-09T09:04:27.310Z,-1.51
2023-02-09T09:05:27.353Z,-1.54
2023-02-09T09:06:27.280Z,-1.32
2023-02-09T09:07:27.296Z,-1.21
2023-02-09T09:08:27.251Z,-1.13
2023-02-09T09:09:27.230Z,-1.00
2023-02-09T09:10:27.224Z,-0.92
2023-02-09T09:11:27.213Z,-0.74
2023-02-09T09:12:27.198Z,-0.63
2023-02-09T09:13:27.199Z,-0.56
2023-02-09T09:14:27.206Z,-0.30
2023-02-09T09:15:27.159Z,-0.09
2023-02-09T09:16:27.209Z,0.08
2023-02-09T09:17:27.127Z,0.33
2023-02-09T09:18:27.133Z,0.49
2023-02-09T09:19:27.101Z,0.77
2023-02-09T09:20:27.102Z,0.96
2023-02-09T09:21:27.107Z,0.88
2023-02-09T09:22:27.070Z,0.81
2023-02-09T09:23:27.050Z,0.98
2023-02-09T09:24:27.044Z,1.04
2023-02-09T09:25:27.029Z,1.17
2023-02-09T09:26:27.015Z,1.24
2023-02-09T09:27:27.180Z,1.17
2023-02-09T09:28:27.025Z,1.21
2023-02-09T09:29:26.976Z,1.06
2023-02-09T09:30:26.962Z,1.02
2023-02-09T09:31:27.096Z,0.92
2023-02-09T09:32:27.082Z,0.71
2023-02-09T09:33:26.922Z,0.52
2023-02-09T09:34:26.913Z,0.60
2023-02-09T09:35:26.891Z,0.60
2023-02-09T09:36:26.879Z,0.56
2023-02-09T09:37:26.898Z,0.53
2023-02-09T09:38:26.847Z,0.44
2023-02-09T09:39:26.830Z,0.37
2023-02-09T09:40:26.822Z,0.16
2023-02-09T09:41:26.813Z,0.12
2023-02-09T09:42:26.803Z,0.13
2023-02-09T09:43:26.785Z,-0.06
2023-02-09T09:44:26.778Z,-0.19
2023-02-09T09:45:26.753Z,-0.24
2023-02-09T09:46:26.799Z,-0.24
2023-02-09T09:47:26.723Z,-0.24
2023-02-09T09:48:26.733Z,-0.32
2023-02-09T09:49:26.704Z,-0.34
2023-02-09T09:50:26.704Z,-0.47
2023-02-09T09:51:26.679Z,-0.41
2023-02-09T09:52:26.664Z,-0.39
2023-02-09T09:53:26.666Z,-0.45
2023-02-09T09:54:26.647Z,-0.47
2023-02-09T09:55:26.879Z,-0.30
2023-02-09T09:56:27.270Z,-0.26
2023-02-09T09:57:26.603Z,-0.32
2023-02-09T09:58:26.582Z,-0.38
2023-02-09T09:59:26.564Z,-0.31
2023-02-09T10:00:26.673Z,-0.35
2023-02-09T10:01:26.568Z,-0.41
2023-02-09T10:02:26.523Z,-0.56
2023-02-09T10:03:26.518Z,-0.55
2023-02-09T10:04:26.538Z,-0.52
2023-02-09T10:05:26.488Z,-0.55
2023-02-09T10:06:26.475Z,-0.39
2023-02-09T10:07:26.459Z,-0.42
2023-02-09T10:08:26.447Z,-0.38
2023-02-09T10:09:26.472Z,-0.37
2023-02-09T10:10:26.417Z,-0.32
2023-02-09T10:11:26.400Z,-0.34
2023-02-09T10:12:26.399Z,-0.34
2023-02-09T10:13:26.379Z,-0.34
2023-02-09T10:14:26.381Z,-0.31
2023-02-09T10:15:26.355Z,-0.19
2023-02-09T10:16:26.380Z,-0.17
2023-02-09T10:17:26.319Z,-0.14
2023-02-09T10:18:26.304Z,-0.12
2023-02-09T10:19:26.288Z,-0.13
2023-02-09T10:20:26.287Z,-0.06
2023-02-09T10:21:26.273Z,-0.01
2023-02-09T10:22:26.260Z,-0.06
2023-02-09T10:23:26.502Z,0.07
2023-02-09T10:24:26.236Z,-0.05
2023-02-09T10:25:26.238Z,0.20
2023-02-09T10:26:26.199Z,0.15
2023-02-09T10:27:26.183Z,0.19
2023-02-09T10:28:26.238Z,0.17
2023-02-09T10:29:26.158Z,0.17
2023-02-09T10:30:26.146Z,0.25
2023-02-09T10:31:26.370Z,0.33
2023-02-09T10:32:26.129Z,0.26
2023-02-09T10:33:26.107Z,0.22
2023-02-09T10:34:26.090Z,0.31
2023-02-09T10:35:26.079Z,0.40
2023-02-09T10:36:26.067Z,0.22
2023-02-09T10:37:26.052Z,0.44
2023-02-09T10:38:26.039Z,0.41
2023-02-09T10:39:27.028Z,0.53
2023-02-09T10:40:26.013Z,0.52
2023-02-09T10:41:26.013Z,0.53
2023-02-09T10:42:25.981Z,0.70
2023-02-09T10:43:25.975Z,0.56
2023-02-09T10:44:25.953Z,0.74
2023-02-09T10:45:25.935Z,0.74
2023-02-09T10:46:26.036Z,0.80
2023-02-09T10:47:25.910Z,0.84
2023-02-09T10:48:25.897Z,0.84
2023-02-09T10:49:25.886Z,0.92
2023-02-09T10:50:25.872Z,0.99
2023-02-09T10:51:25.859Z,0.96
2023-02-09T10:52:25.849Z,1.02
2023-02-09T10:53:25.836Z,1.11
2023-02-09T10:54:25.820Z,1.13
2023-02-09T10:55:25.813Z,1.04
2023-02-09T10:56:25.798Z,1.08
2023-02-09T10:57:25.881Z,1.21
2023-02-09T10:58:25.771Z,1.31
2023-02-09T10:59:25.790Z,1.43
2023-02-09T11:00:25.749Z,1.49
2023-02-09T11:01:25.771Z,1.49
2023-02-09T11:02:25.708Z,1.68
2023-02-09T11:03:25.701Z,2.50
2023-02-09T11:04:25.760Z,3.39
2023-02-09T11:05:25.678Z,4.06
2023-02-09T11:06:25.664Z,4.31
2023-02-09T11:07:25.647Z,4.28
2023-02-09T11:08:25.630Z,4.43
2023-02-09T11:09:25.618Z,4.39
2023-02-09T11:10:25.604Z,4.21
2023-02-09T11:11:25.603Z,3.86
2023-02-09T11:12:25.576Z,3.72
2023-02-09T11:13:25.591Z,3.37
2023-02-09T11:14:25.558Z,3.07
2023-02-09T11:15:25.542Z,2.63
2023-02-09T11:16:25.604Z,2.45
2023-02-09T11:17:25.514Z,2.50
2023-02-09T11:18:25.596Z,2.68
2023-02-09T11:19:25.488Z,2.62
2023-02-09T11:20:25.487Z,2.69
2023-02-09T11:21:25.477Z,2.83
2023-02-09T11:22:28.872Z,2.90
2023-02-09T11:23:25.437Z,2.92
2023-02-09T11:24:26.422Z,3.07
2023-02-09T11:25:25.405Z,3.16
2023-02-09T11:26:25.417Z,3.33
2023-02-09T11:27:25.381Z,3.49
2023-02-09T11:28:25.386Z,3.39
2023-02-09T11:29:25.375Z,3.45
2023-02-09T11:30:25.354Z,3.59
2023-02-09T11:31:25.466Z,3.39
2023-02-09T11:32:25.316Z,3.49
2023-02-09T11:33:25.296Z,3.52
2023-02-09T11:34:26.359Z,3.84
2023-02-09T11:35:25.267Z,4.29
2023-02-09T11:36:25.275Z,4.77
2023-02-09T11:37:25.246Z,5.12
2023-02-09T11:38:25.230Z,5.44
2023-02-09T11:39:25.217Z,5.40
2023-02-09T11:40:25.203Z,5.09
2023-02-09T11:41:25.189Z,4.97
2023-02-09T11:42:25.171Z,5.15
2023-02-09T11:43:25.160Z,5.60
2023-02-09T11:44:25.145Z,5.65
2023-02-09T11:45:25.159Z,5.62
2023-02-09T11:46:25.143Z,5.88
2023-02-09T11:47:25.113Z,6.16
2023-02-09T11:48:25.102Z,6.69
2023-02-09T11:49:25.085Z,7.45
2023-02-09T11:50:25.069Z,7.81
2023-02-09T11:51:25.062Z,7.45
2023-02-09T11:52:25.044Z,7.23
2023-02-09T11:53:25.024Z,7.23
2023-02-09T11:54:25.008Z,7.69
2023-02-09T11:55:25.003Z,8.27
2023-02-09T11:56:25.013Z,8.83
2023-02-09T11:57:24.973Z,9.49
2023-02-09T11:58:24.957Z,10.02
2023-02-09T11:59:24.951Z,10.72
2023-02-09T12:00:24.929Z,11.70
2023-02-09T12:01:24.935Z,12.46
2023-02-09T12:02:24.951Z,13.09
2023-02-09T12:03:24.891Z,13.55
2023-02-09T12:04:24.883Z,13.44
2023-02-09T12:05:24.871Z,13.68
2023-02-09T12:06:24.959Z,13.57
2023-02-09T12:07:24.834Z,12.63
2023-02-09T12:08:24.821Z,12.87
2023-02-09T12:09:24.809Z,13.19
2023-02-09T12:10:24.793Z,13.65
2023-02-09T12:11:24.779Z,14.09
2023-02-09T12:12:24.766Z,13.59
2023-02-09T12:13:24.754Z,12.92
2023-02-09T12:14:24.742Z,13.27
2023-02-09T12:15:24.734Z,14.01
2023-02-09T12:16:24.811Z,14.42
2023-02-09T12:17:24.718Z,14.67
2023-02-09T12:18:24.688Z,15.07
2023-02-09T12:19:25.073Z,15.20
2023-02-09T12:20:24.661Z,14.69
2023-02-09T12:21:24.647Z,14.94
2023-02-09T12:22:24.626Z,15.01
2023-02-09T12:23:24.623Z,14.97
2023-02-09T12:24:24.603Z,14.53
2023-02-09T12:25:24.584Z,14.36
2023-02-09T12:26:24.574Z,13.76
2023-02-09T12:27:24.561Z,13.83
2023-02-09T12:28:24.649Z,14.12
2023-02-09T12:29:24.548Z,14.31
2023-02-09T12:30:24.539Z,14.71
2023-02-09T12:31:24.643Z,15.31
2023-02-09T12:32:24.603Z,15.76
2023-02-09T12:33:24.556Z,16.04
2023-02-09T12:34:24.460Z,16.62
2023-02-09T12:35:24.454Z,16.25
2023-02-09T12:36:24.441Z,16.45
2023-02-09T12:37:28.068Z,16.03
2023-02-09T12:38:24.406Z,16.06
2023-02-09T12:39:24.462Z,16.04
2023-02-09T12:40:24.397Z,15.77
2023-02-09T12:41:24.368Z,15.76
2023-02-09T12:42:24.370Z,16.17
2023-02-09T12:43:24.345Z,16.33
2023-02-09T12:44:24.328Z,15.56
2023-02-09T12:45:24.316Z,15.64
2023-02-09T12:46:24.467Z,15.89
2023-02-09T12:47:24.289Z,16.17
2023-02-09T12:48:24.272Z,16.36
2023-02-09T12:49:24.281Z,16.22
2023-02-09T12:50:24.251Z,15.86
2023-02-09T12:51:24.231Z,15.91
2023-02-09T12:52:24.415Z,15.85
2023-02-09T12:53:24.216Z,16.17
2023-02-09T12:54:24.191Z,16.27
2023-02-09T12:55:24.178Z,16.27
2023-02-09T12:56:24.167Z,16.40